createdAt,value
2018-05-09T00:02:10.220Z,5.60
2018-05-09T00:04:38.623Z,6.70
2018-05-09T00:07:07.025Z,12.23
2018-05-09T00:09:35.768Z,7.37
2018-05-09T00:12:04.309Z,3.67
2018-05-09T00:14:32.631Z,4.47
2018-05-09T00:17:01.411Z,8.10
2018-05-09T00:19:29.807Z,6.83
2018-05-09T00:21:58.215Z,5.33
2018-05-09T00:24:26.819Z,5.53
2018-05-09T00:26:56.207Z,5.27
2018-05-09T00:29:24.606Z,7.60
2018-05-09T00:31:53.182Z,8.17
2018-05-09T00:34:21.565Z,3.17
2018-05-09T00:36:49.959Z,5.07
2018-05-09T00:39:18.775Z,4.73
2018-05-09T00:41:47.243Z,5.80
2018-05-09T00:44:15.577Z,5.70
2018-05-09T00:46:44.208Z,5.83
2018-05-09T00:49:12.590Z,6.33
2018-05-09T00:51:40.981Z,5.77
2018-05-09T00:54:21.687Z,5.30
2018-05-09T00:56:50.047Z,3.90
2018-05-09T00:59:18.452Z,5.53
2018-05-09T01:01:46.887Z,8.47
2018-05-09T01:04:15.517Z,9.47
2018-05-09T01:06:43.964Z,4.27
2018-05-09T01:09:12.743Z,5.73
2018-05-09T01:11:41.145Z,3.37
2018-05-09T01:14:09.591Z,8.03
2018-05-09T01:16:38.063Z,4.00
2018-05-09T01:19:06.475Z,3.77
2018-05-09T01:21:34.880Z,5.83
2018-05-09T01:24:03.641Z,10.50
2018-05-09T01:26:32.036Z,5.23
2018-05-09T01:29:00.428Z,4.20
2018-05-09T01:31:29.123Z,9.60
2018-05-09T01:33:57.525Z,4.60
2018-05-09T01:36:26.036Z,6.67
2018-05-09T01:38:54.842Z,5.33
2018-05-09T01:41:23.297Z,9.47
2018-05-09T01:43:51.754Z,5.90
2018-05-09T01:46:20.396Z,7.93
2018-05-09T01:48:48.828Z,5.90
2018-05-09T01:51:17.227Z,5.90
2018-05-09T01:53:46.215Z,7.80
2018-05-09T01:56:14.625Z,5.53
2018-05-09T01:58:43.102Z,5.47
2018-05-09T02:01:11.696Z,4.93
2018-05-09T02:03:40.083Z,5.67
2018-05-09T02:06:08.497Z,7.50
2018-05-09T02:08:37.243Z,5.80
2018-05-09T02:11:05.644Z,5.10
2018-05-09T02:13:34.059Z,6.23
2018-05-09T02:16:02.888Z,5.03
2018-05-09T02:18:31.330Z,8.50
2018-05-09T02:20:59.743Z,3.93
2018-05-09T02:23:28.517Z,5.53
2018-05-09T02:25:56.906Z,4.07
2018-05-09T02:28:26.183Z,10.23
2018-05-09T02:30:54.743Z,7.27
2018-05-09T02:33:23.119Z,8.43
2018-05-09T02:35:51.500Z,5.93
2018-05-09T02:38:19.941Z,9.17
2018-05-09T02:40:48.331Z,10.07
2018-05-09T02:43:16.807Z,6.40
2018-05-09T02:45:45.336Z,5.77
2018-05-09T02:48:13.731Z,5.60
2018-05-09T02:50:42.135Z,6.17
2018-05-09T02:53:10.933Z,8.30
2018-05-09T02:55:39.336Z,7.60
2018-05-09T02:58:07.748Z,6.30
2018-05-09T03:00:37.312Z,6.20
2018-05-09T03:03:05.750Z,9.77
2018-05-09T03:05:34.122Z,5.93
2018-05-09T03:08:02.530Z,6.00
2018-05-09T03:10:30.951Z,12.67
2018-05-09T03:12:59.382Z,6.17
2018-05-09T03:15:28.205Z,11.40
2018-05-09T03:17:56.611Z,7.43
2018-05-09T03:20:25.110Z,6.97
2018-05-09T03:22:53.939Z,16.60
2018-05-09T03:25:22.276Z,9.07
2018-05-09T03:27:50.848Z,5.60
2018-05-09T03:30:19.600Z,9.47
2018-05-09T03:32:47.996Z,15.70
2018-05-09T03:35:16.373Z,6.17
2018-05-09T03:37:44.961Z,14.57
2018-05-09T03:40:13.436Z,9.53
2018-05-09T03:42:41.901Z,9.40
2018-05-09T03:45:10.326Z,16.53
2018-05-09T03:47:38.707Z,9.53
2018-05-09T03:50:07.271Z,10.20
2018-05-09T03:52:35.739Z,15.93
2018-05-09T03:55:04.186Z,11.53
2018-05-09T03:57:32.682Z,18.70
2018-05-09T04:00:01.252Z,14.77
2018-05-09T04:02:44.291Z,22.87
2018-05-09T04:05:24.689Z,15.07
2018-05-09T04:08:04.815Z,14.27
2018-05-09T04:10:33.639Z,16.90
2018-05-09T04:13:02.065Z,28.67
2018-05-09T04:15:30.464Z,23.20
2018-05-09T04:17:59.163Z,11.10
2018-05-09T04:20:27.595Z,23.23
2018-05-09T04:22:56.020Z,40.83
2018-05-09T04:25:24.816Z,21.87
2018-05-09T04:27:54.423Z,15.80
2018-05-09T04:30:22.800Z,15.57
2018-05-09T04:32:51.247Z,12.17
2018-05-09T04:35:19.619Z,9.80
2018-05-09T04:37:48.701Z,18.23
2018-05-09T04:40:17.296Z,21.80
2018-05-09T04:42:45.684Z,19.23
2018-05-09T04:45:14.088Z,12.43
2018-05-09T04:47:42.593Z,17.00
2018-05-09T04:50:11.118Z,12.20
2018-05-09T04:52:39.561Z,12.83
2018-05-09T04:55:08.045Z,36.53
2018-05-09T04:57:36.412Z,17.03
2018-05-09T05:00:04.881Z,16.93
2018-05-09T05:02:33.628Z,19.73
2018-05-09T05:05:02.037Z,20.17
2018-05-09T05:07:30.447Z,13.00
2018-05-09T05:09:58.980Z,19.50
2018-05-09T05:12:27.393Z,12.00
2018-05-09T05:14:55.921Z,17.50
2018-05-09T05:17:24.395Z,16.90
2018-05-09T05:19:52.801Z,12.27
2018-05-09T05:22:21.247Z,13.13
2018-05-09T05:24:50.000Z,15.10
2018-05-09T05:27:18.415Z,18.37
2018-05-09T05:29:46.792Z,13.97
2018-05-09T05:32:15.243Z,14.37
2018-05-09T05:34:43.640Z,9.83
2018-05-09T05:37:12.185Z,20.43
2018-05-09T05:39:41.021Z,10.63
2018-05-09T05:42:09.403Z,10.17
2018-05-09T05:44:37.793Z,9.70
2018-05-09T05:47:06.571Z,12.60
2018-05-09T05:49:34.967Z,10.50
2018-05-09T05:52:03.387Z,11.07
2018-05-09T05:54:31.827Z,5.27
2018-05-09T05:57:00.332Z,9.13
2018-05-09T05:59:28.744Z,12.50
2018-05-09T06:01:57.561Z,15.40
2018-05-09T06:04:25.946Z,8.27
2018-05-09T06:06:54.403Z,9.00
2018-05-09T06:09:22.855Z,9.80
2018-05-09T06:11:51.280Z,13.60
2018-05-09T06:14:19.692Z,16.23
2018-05-09T06:16:48.116Z,15.10
2018-05-09T06:19:16.544Z,12.73
2018-05-09T06:21:44.964Z,6.60
2018-05-09T06:24:13.400Z,9.00
2018-05-09T06:26:41.869Z,7.57
2018-05-09T06:29:10.435Z,10.30
2018-05-09T06:31:38.820Z,13.33
2018-05-09T06:34:07.267Z,15.03
2018-05-09T06:36:35.671Z,13.07
2018-05-09T06:39:04.183Z,7.77
2018-05-09T06:41:32.599Z,7.47
2018-05-09T06:44:01.016Z,7.10
2018-05-09T06:46:29.583Z,7.27
2018-05-09T06:48:57.984Z,9.00
2018-05-09T06:51:26.423Z,5.73
2018-05-09T06:53:54.859Z,4.87
2018-05-09T06:56:23.326Z,6.73
2018-05-09T06:58:51.812Z,9.57
2018-05-09T07:01:20.257Z,9.50
2018-05-09T07:03:48.641Z,5.20
2018-05-09T07:06:17.109Z,8.67
2018-05-09T07:08:45.523Z,5.83
2018-05-09T07:11:13.969Z,6.67
2018-05-09T07:13:42.355Z,3.70
2018-05-09T07:16:10.779Z,4.63
2018-05-09T07:18:39.203Z,5.30
2018-05-09T07:21:07.609Z,4.40
2018-05-09T07:23:36.065Z,6.87
2018-05-09T07:26:04.476Z,8.00
2018-05-09T07:28:32.928Z,9.47
2018-05-09T07:31:01.359Z,6.57
2018-05-09T07:33:29.769Z,7.80
2018-05-09T07:35:58.167Z,5.87
2018-05-09T07:38:26.595Z,6.07
2018-05-09T07:40:55.062Z,3.80
2018-05-09T07:43:23.495Z,5.33
2018-05-09T07:45:51.976Z,7.43
2018-05-09T07:48:20.421Z,8.83
2018-05-09T07:50:48.839Z,5.27
2018-05-09T07:53:17.270Z,6.33
2018-05-09T07:55:45.724Z,6.00
2018-05-09T07:58:14.111Z,3.77
2018-05-09T08:00:42.547Z,6.00
2018-05-09T08:03:10.979Z,4.33
2018-05-09T08:05:39.550Z,4.37
2018-05-09T08:08:07.963Z,7.67
2018-05-09T08:10:36.400Z,6.03
2018-05-09T08:13:04.840Z,7.73
2018-05-09T08:15:33.258Z,7.93
2018-05-09T08:18:01.698Z,4.67
2018-05-09T08:20:30.153Z,7.80
2018-05-09T08:22:58.599Z,6.57
2018-05-09T08:25:27.035Z,6.70
2018-05-09T08:27:55.475Z,7.70
2018-05-09T08:30:24.156Z,7.47
2018-05-09T08:32:52.481Z,4.17
2018-05-09T08:35:20.948Z,3.87
2018-05-09T08:37:49.324Z,4.60
2018-05-09T08:40:17.811Z,8.63
2018-05-09T08:42:46.279Z,7.17
2018-05-09T08:45:14.724Z,4.90
2018-05-09T08:47:43.178Z,3.63
2018-05-09T08:50:11.628Z,4.23
2018-05-09T08:52:40.052Z,4.83
2018-05-09T08:55:08.490Z,7.53
2018-05-09T08:57:37.000Z,9.83
2018-05-09T09:00:05.453Z,8.37
2018-05-09T09:02:33.907Z,7.63
2018-05-09T09:05:02.313Z,4.30
2018-05-09T09:07:30.877Z,8.20
2018-05-09T09:09:59.263Z,9.57
2018-05-09T09:12:27.681Z,5.37
2018-05-09T09:14:56.085Z,5.63
2018-05-09T09:17:24.519Z,6.77
2018-05-09T09:19:53.023Z,6.33
2018-05-09T09:22:21.468Z,5.40
2018-05-09T09:24:49.860Z,5.10
2018-05-09T09:27:18.311Z,5.43
2018-05-09T09:29:46.685Z,6.73
2018-05-09T09:32:15.177Z,3.93
2018-05-09T09:34:43.697Z,8.90
2018-05-09T09:37:12.092Z,4.23
2018-05-09T09:39:40.528Z,7.07
2018-05-09T09:42:08.960Z,6.83
2018-05-09T09:44:37.395Z,3.90
2018-05-09T09:47:05.823Z,7.50
2018-05-09T09:49:34.369Z,8.87
2018-05-09T09:52:02.793Z,4.70
2018-05-09T09:54:31.260Z,3.83
2018-05-09T09:56:59.693Z,9.53
2018-05-09T09:59:28.129Z,14.17
2018-05-09T10:01:56.572Z,6.37
2018-05-09T10:04:25.060Z,6.73
2018-05-09T10:06:53.505Z,3.13
2018-05-09T10:09:22.029Z,4.57
2018-05-09T10:11:50.498Z,2.63
2018-05-09T10:14:18.927Z,8.33
2018-05-09T10:16:47.368Z,5.23
2018-05-09T10:19:15.831Z,7.37
2018-05-09T10:21:44.335Z,5.13
2018-05-09T10:24:12.719Z,5.50
2018-05-09T10:26:41.151Z,9.13
2018-05-09T10:29:09.552Z,8.50
2018-05-09T10:31:38.093Z,4.73
2018-05-09T10:34:06.461Z,6.20
2018-05-09T10:36:34.879Z,9.93
2018-05-09T10:39:03.316Z,2.73
2018-05-09T10:41:31.810Z,9.30
2018-05-09T10:44:00.227Z,3.97
2018-05-09T10:46:28.672Z,4.30
2018-05-09T10:48:57.051Z,4.80
2018-05-09T10:51:25.515Z,3.13
2018-05-09T10:53:53.930Z,4.70
2018-05-09T10:56:22.472Z,3.43
2018-05-09T10:58:50.890Z,6.30
2018-05-09T11:01:19.315Z,3.03
2018-05-09T11:03:47.838Z,7.05
2018-05-09T11:06:16.242Z,6.40
2018-05-09T11:08:44.659Z,6.18
2018-05-09T11:11:13.051Z,5.33
2018-05-09T11:13:41.579Z,4.37
2018-05-09T11:16:09.987Z,6.93
2018-05-09T11:18:38.406Z,4.40
2018-05-09T11:21:06.905Z,3.22
2018-05-09T11:23:35.319Z,3.83
2018-05-09T11:26:03.803Z,3.12
2018-05-09T11:28:32.250Z,6.55
2018-05-09T11:31:00.830Z,2.78
2018-05-09T11:33:29.262Z,9.32
2018-05-09T11:35:57.699Z,3.10
2018-05-09T11:38:26.128Z,4.65
2018-05-09T11:40:54.544Z,2.75
2018-05-09T11:43:22.993Z,5.97
2018-05-09T11:45:51.408Z,3.45
2018-05-09T11:48:19.899Z,5.87
2018-05-09T11:50:48.292Z,6.07
2018-05-09T11:53:16.875Z,4.07
2018-05-09T11:55:45.163Z,11.20
2018-05-09T11:58:13.969Z,4.97
2018-05-09T12:00:42.357Z,10.82
2018-05-09T12:03:10.841Z,5.47
2018-05-09T12:05:39.468Z,4.50
2018-05-09T12:08:07.964Z,2.72
2018-05-09T12:10:36.632Z,10.02
2018-05-09T12:13:05.038Z,4.05
2018-05-09T12:15:33.519Z,4.53
2018-05-09T12:18:01.905Z,7.53
2018-05-09T12:20:30.297Z,8.63
2018-05-09T12:22:58.712Z,4.78
2018-05-09T12:25:27.131Z,4.43
2018-05-09T12:27:55.563Z,8.18
2018-05-09T12:30:24.135Z,6.90
2018-05-09T12:32:52.571Z,5.35
2018-05-09T12:35:20.968Z,2.92
2018-05-09T12:37:49.379Z,8.30
2018-05-09T12:40:17.831Z,8.88
2018-05-09T12:42:46.220Z,8.50
2018-05-09T12:45:14.596Z,4.22
2018-05-09T12:47:43.045Z,3.35
2018-05-09T12:50:11.439Z,3.17
2018-05-09T12:52:39.832Z,17.45
2018-05-09T12:55:08.247Z,11.30
2018-05-09T12:57:36.650Z,15.00
2018-05-09T13:00:05.104Z,5.95
2018-05-09T13:02:33.511Z,6.75
2018-05-09T13:05:01.894Z,8.80
2018-05-09T13:07:30.375Z,3.08
2018-05-09T13:09:58.788Z,5.62
2018-05-09T13:12:27.186Z,5.18
2018-05-09T13:14:55.619Z,3.28
2018-05-09T13:17:23.991Z,7.30
2018-05-09T13:19:52.455Z,4.35
2018-05-09T13:22:20.855Z,4.55
2018-05-09T13:24:49.278Z,4.28
2018-05-09T13:27:17.655Z,4.80
2018-05-09T13:29:46.120Z,3.87
2018-05-09T13:32:14.508Z,12.55
2018-05-09T13:34:42.908Z,4.50
2018-05-09T13:37:11.379Z,4.70
2018-05-09T13:39:39.907Z,11.07
2018-05-09T13:42:10.556Z,5.15
2018-05-09T13:44:39.870Z,5.37
2018-05-09T13:47:09.587Z,3.47
2018-05-09T13:49:38.020Z,4.60
2018-05-09T13:52:06.472Z,2.80
2018-05-09T13:54:35.078Z,5.35
2018-05-09T13:57:03.466Z,5.00
2018-05-09T13:59:31.844Z,5.28
2018-05-09T14:02:00.367Z,8.32
2018-05-09T14:04:28.763Z,7.00
2018-05-09T14:06:57.153Z,2.72
2018-05-09T14:09:25.565Z,3.08
2018-05-09T14:11:53.972Z,4.32
2018-05-09T14:14:22.376Z,3.45
2018-05-09T14:16:51.210Z,5.85
2018-05-09T14:19:19.588Z,4.50
2018-05-09T14:21:47.993Z,6.28
2018-05-09T14:24:16.648Z,4.00
2018-05-09T14:26:45.016Z,9.90
2018-05-09T14:29:13.448Z,2.70
2018-05-09T14:31:41.919Z,4.35
2018-05-09T14:34:10.453Z,4.07
2018-05-09T14:36:38.850Z,7.82
2018-05-09T14:39:07.291Z,8.15
2018-05-09T14:41:35.692Z,6.50
2018-05-09T14:44:04.100Z,9.52
2018-05-09T14:46:32.733Z,6.32
2018-05-09T14:49:01.219Z,6.15
2018-05-09T14:51:29.652Z,3.12
2018-05-09T14:53:58.191Z,6.15
2018-05-09T14:56:26.573Z,4.00
2018-05-09T14:58:54.990Z,6.85
2018-05-09T15:01:23.415Z,8.27
2018-05-09T15:03:51.783Z,4.43
2018-05-09T15:06:20.352Z,5.95
2018-05-09T15:08:49.015Z,4.22
2018-05-09T15:11:17.409Z,5.47
2018-05-09T15:13:45.833Z,6.03
2018-05-09T15:16:14.328Z,7.35
2018-05-09T15:18:43.168Z,4.80
2018-05-09T15:21:11.551Z,3.45
2018-05-09T15:23:40.308Z,18.83
2018-05-09T15:26:08.768Z,16.48
2018-05-09T15:28:37.189Z,10.63
2018-05-09T15:31:05.976Z,10.13
2018-05-09T15:33:34.359Z,3.90
2018-05-09T15:36:02.880Z,8.07
2018-05-09T15:38:31.509Z,10.73
2018-05-09T15:40:59.980Z,8.20
2018-05-09T15:43:28.392Z,17.17
2018-05-09T15:45:56.792Z,9.38
2018-05-09T15:48:25.207Z,6.80
2018-05-09T15:50:53.701Z,6.00
2018-05-09T15:53:22.127Z,7.57
2018-05-09T15:55:50.747Z,8.07
2018-05-09T15:58:19.301Z,14.77
2018-05-09T16:00:48.741Z,8.95
2018-05-09T16:03:17.124Z,10.77
2018-05-09T16:05:45.621Z,6.57
2018-05-09T16:08:14.107Z,8.98
2018-05-09T16:10:42.556Z,12.68
2018-05-09T16:13:10.939Z,11.52
2018-05-09T16:15:39.461Z,9.68
2018-05-09T16:18:07.928Z,14.32
2018-05-09T16:20:36.383Z,7.93
2018-05-09T16:23:04.841Z,24.23
2018-05-09T16:25:33.310Z,17.60
2018-05-09T16:28:01.760Z,10.30
2018-05-09T16:30:30.212Z,6.90
2018-05-09T16:32:58.650Z,14.23
2018-05-09T16:35:27.077Z,4.70
2018-05-09T16:37:55.566Z,8.65
2018-05-09T16:40:23.977Z,10.38
2018-05-09T16:42:52.436Z,8.88
2018-05-09T16:45:21.243Z,16.08
2018-05-09T16:47:49.631Z,12.63
2018-05-09T16:50:18.047Z,8.63
2018-05-09T16:52:46.515Z,12.88
2018-05-09T16:55:14.920Z,16.35
2018-05-09T16:57:43.300Z,17.17
2018-05-09T17:00:11.865Z,13.00
2018-05-09T17:02:40.252Z,13.53
2018-05-09T17:05:08.712Z,11.83
2018-05-09T17:07:37.240Z,12.70
2018-05-09T17:10:05.719Z,9.60
2018-05-09T17:12:34.134Z,7.87
2018-05-09T17:15:02.844Z,15.13
2018-05-09T17:17:31.404Z,18.70
2018-05-09T17:19:59.874Z,11.27
2018-05-09T17:22:34.155Z,6.10
2018-05-09T17:25:02.555Z,11.60
2018-05-09T17:27:30.939Z,11.50
2018-05-09T17:29:59.643Z,6.53
2018-05-09T17:32:28.023Z,12.07
2018-05-09T17:34:56.492Z,15.27
2018-05-09T17:37:24.952Z,11.50
2018-05-09T17:39:53.340Z,15.63
2018-05-09T17:42:21.755Z,16.40
2018-05-09T17:44:50.238Z,13.10
2018-05-09T17:47:18.646Z,11.07
2018-05-09T17:49:47.067Z,19.80
2018-05-09T17:52:15.686Z,22.57
2018-05-09T17:54:44.075Z,17.97
2018-05-09T17:57:12.465Z,20.67
2018-05-09T17:59:40.892Z,18.17
2018-05-09T18:02:09.315Z,24.40
2018-05-09T18:04:37.707Z,23.37
2018-05-09T18:07:06.149Z,19.00
2018-05-09T18:09:34.601Z,29.87
2018-05-09T18:12:03.016Z,18.93
2018-05-09T18:14:31.515Z,34.70
2018-05-09T18:16:59.909Z,9.70
2018-05-09T18:19:28.333Z,25.43
2018-05-09T18:21:56.920Z,13.50
2018-05-09T18:24:25.376Z,35.67
2018-05-09T18:26:53.885Z,15.00
2018-05-09T18:29:22.399Z,18.17
2018-05-09T18:31:50.837Z,14.53
2018-05-09T18:34:19.235Z,15.07
2018-05-09T18:36:47.835Z,18.73
2018-05-09T18:39:16.227Z,9.57
2018-05-09T18:41:44.600Z,31.07
2018-05-09T18:44:13.071Z,16.73
2018-05-09T18:46:41.494Z,13.77
2018-05-09T18:49:09.924Z,11.30
2018-05-09T18:51:38.379Z,13.33
2018-05-09T18:54:06.978Z,25.40
2018-05-09T18:56:35.287Z,17.83
2018-05-09T18:59:03.760Z,14.70
2018-05-09T19:01:32.196Z,30.17
2018-05-09T19:04:00.566Z,21.00
2018-05-09T19:06:29.069Z,13.17
2018-05-09T19:08:57.425Z,13.63
2018-05-09T19:11:26.084Z,10.43
2018-05-09T19:13:54.674Z,16.77
2018-05-09T19:16:23.081Z,13.27
2018-05-09T19:18:51.497Z,18.00
2018-05-09T19:21:19.932Z,15.10
2018-05-09T19:23:48.321Z,18.07
2018-05-09T19:26:16.767Z,20.27
2018-05-09T19:28:45.226Z,18.67
2018-05-09T19:31:13.702Z,23.57
2018-05-09T19:33:42.103Z,18.33
2018-05-09T19:36:10.560Z,19.53
2018-05-09T19:38:39.014Z,20.93
2018-05-09T19:41:07.917Z,18.23
2018-05-09T19:43:36.364Z,18.87
2018-05-09T19:46:04.779Z,23.03
2018-05-09T19:48:33.180Z,15.60
2018-05-09T19:51:01.607Z,17.83
2018-05-09T19:53:30.044Z,18.23
2018-05-09T19:55:58.433Z,20.07
2018-05-09T19:58:26.887Z,9.53
2018-05-09T20:00:55.288Z,14.83
2018-05-09T20:03:23.686Z,11.63
2018-05-09T20:05:52.219Z,14.37
2018-05-09T20:08:20.635Z,15.00
2018-05-09T20:10:49.016Z,12.07
2018-05-09T20:13:17.636Z,16.10
2018-05-09T20:15:46.046Z,16.37
2018-05-09T20:18:14.432Z,18.17
2018-05-09T20:20:43.193Z,15.47
2018-05-09T20:23:11.592Z,15.97
2018-05-09T20:25:40.010Z,11.73
2018-05-09T20:28:08.436Z,13.17
2018-05-09T20:30:42.551Z,11.73
2018-05-09T20:33:11.203Z,16.63
2018-05-09T20:35:39.719Z,20.90
2018-05-09T20:38:08.125Z,10.00
2018-05-09T20:40:36.734Z,13.23
2018-05-09T20:43:05.138Z,10.00
2018-05-09T20:45:33.558Z,11.50
2018-05-09T20:48:02.228Z,13.70
2018-05-09T20:50:30.676Z,13.33
2018-05-09T20:52:59.120Z,15.20
2018-05-09T20:55:29.244Z,14.13
2018-05-09T20:57:57.622Z,16.57
2018-05-09T21:00:26.137Z,13.67
2018-05-09T21:02:54.734Z,12.10
2018-05-09T21:05:23.135Z,12.67
2018-05-09T21:07:56.477Z,17.03
2018-05-09T21:10:24.875Z,15.17
2018-05-09T21:12:53.320Z,15.33
2018-05-09T21:15:21.796Z,12.33
2018-05-09T21:17:50.228Z,14.10
2018-05-09T21:20:18.614Z,10.03
2018-05-09T21:22:47.322Z,11.07
2018-05-09T21:25:15.740Z,19.83
2018-05-09T21:27:44.159Z,16.17
2018-05-09T21:30:12.646Z,11.90
2018-05-09T21:32:41.199Z,14.90
2018-05-09T21:35:09.663Z,14.03
2018-05-09T21:37:38.290Z,11.17
2018-05-09T21:40:06.758Z,14.47
2018-05-09T21:42:35.144Z,14.73
2018-05-09T21:45:03.631Z,10.20
2018-05-09T21:47:32.019Z,11.47
2018-05-09T21:50:00.451Z,11.50
2018-05-09T21:52:28.892Z,11.90
2018-05-09T21:54:57.273Z,12.10
2018-05-09T21:57:25.666Z,13.80
2018-05-09T21:59:54.079Z,16.37
2018-05-09T22:02:22.487Z,10.17
2018-05-09T22:04:50.979Z,13.00
2018-05-09T22:07:19.461Z,12.37
2018-05-09T22:09:47.903Z,14.23
2018-05-09T22:12:16.317Z,12.23
2018-05-09T22:14:44.921Z,10.20
2018-05-09T22:17:13.375Z,17.30
2018-05-09T22:19:41.792Z,14.43
2018-05-09T22:22:10.435Z,12.53
2018-05-09T22:24:38.819Z,13.60
2018-05-09T22:27:07.199Z,9.93
2018-05-09T22:29:35.816Z,11.10
2018-05-09T22:32:04.234Z,12.43
2018-05-09T22:34:32.624Z,13.77
2018-05-09T22:37:01.098Z,8.53
2018-05-09T22:39:29.507Z,8.73
2018-05-09T22:41:57.891Z,10.27
2018-05-09T22:44:26.512Z,13.10
2018-05-09T22:46:54.941Z,11.60
2018-05-09T22:49:23.326Z,13.47
2018-05-09T22:51:51.752Z,11.23
2018-05-09T22:54:20.140Z,10.97
2018-05-09T22:56:48.627Z,11.27
2018-05-09T22:59:17.061Z,9.30
2018-05-09T23:01:45.470Z,11.40
2018-05-09T23:04:13.864Z,13.47
2018-05-09T23:06:42.535Z,11.00
2018-05-09T23:09:10.937Z,10.03
2018-05-09T23:11:39.305Z,13.53
2018-05-09T23:14:07.810Z,14.30
2018-05-09T23:16:36.214Z,10.37
2018-05-09T23:19:04.621Z,11.70
2018-05-09T23:21:33.087Z,13.40
2018-05-09T23:24:01.494Z,12.23
2018-05-09T23:26:29.893Z,10.73
2018-05-09T23:28:58.325Z,13.17
2018-05-09T23:31:26.726Z,11.33
2018-05-09T23:33:55.180Z,16.53
2018-05-09T23:36:23.664Z,11.27
2018-05-09T23:38:52.069Z,11.47
2018-05-09T23:41:20.484Z,10.23
2018-05-09T23:43:49.144Z,9.63
2018-05-09T23:46:17.581Z,12.53
2018-05-09T23:48:45.983Z,11.50
2018-05-09T23:51:14.703Z,11.17
2018-05-09T23:53:43.094Z,10.57
2018-05-09T23:56:11.491Z,9.03
2018-05-09T23:58:39.951Z,11.50
